Time;durP1;ratioP1;P1;durP2;ratioP2;P2;SDS_P1;SDS_P2;PMS_P1;PMS_P2;Temp;Humidity;BMP_temperature;BMP_pressure;BME280_temperature;BME280_humidity;BME280_pressure;Samples;Min_cycle;Max_cycle;Signal;HPM_P1;HPM_P2
2023/12/09 00:01:57;;;;;;;26.20;8.77;;;;;;;6.16;100.00;101019.13;5050177;28;20032;-60
2023/12/09 00:04:22;;;;;;;30.13;9.30;;;;;;;6.17;100.00;101017.34;5048272;28;20752;-61
2023/12/09 00:06:48;;;;;;;31.08;8.95;;;;;;;6.15;100.00;101020.06;5050149;28;20025;-60
2023/12/09 00:09:15;;;;;;;36.17;9.25;;;;;;;6.14;100.00;101012.22;5051083;28;20103;-61
2023/12/09 00:11:41;;;;;;;31.08;8.48;;;;;;;6.14;100.00;101012.22;5049655;28;20174;-60
2023/12/09 00:14:06;;;;;;;29.90;8.48;;;;;;;6.12;100.00;101004.41;5047947;28;20506;-60
2023/12/09 00:16:31;;;;;;;31.15;8.82;;;;;;;6.13;100.00;101013.16;5049467;28;20032;-61
2023/12/09 00:18:58;;;;;;;28.10;8.80;;;;;;;6.11;100.00;101015.88;5050980;28;20405;-60
2023/12/09 00:21:23;;;;;;;29.25;8.52;;;;;;;6.11;100.00;101021.16;5049877;28;20032;-60
2023/12/09 00:23:48;;;;;;;31.65;8.75;;;;;;;6.09;100.00;101013.31;5051355;28;20481;-60
2023/12/09 00:26:14;;;;;;;29.27;8.30;;;;;;;6.10;100.00;101020.31;5050518;28;20035;-61
2023/12/09 00:28:40;;;;;;;30.35;8.40;;;;;;;6.09;100.00;101020.38;5051092;28;20032;-60
2023/12/09 00:31:05;;;;;;;27.70;8.85;;;;;;;6.08;100.00;101016.06;5054197;28;20041;-61
2023/12/09 00:33:30;;;;;;;30.95;9.25;;;;;;;6.08;100.00;101013.44;5055444;28;20017;-60
2023/12/09 00:35:56;;;;;;;27.70;8.93;;;;;;;6.08;100.00;101022.19;5049513;28;20024;-61
2023/12/09 00:38:21;;;;;;;30.67;9.40;;;;;;;6.08;100.00;101019.53;5055086;28;20021;-61
2023/12/09 00:40:46;;;;;;;30.50;8.75;;;;;;;6.09;100.00;101009.84;5054299;28;20456;-61
2023/12/09 00:43:11;;;;;;;34.22;9.27;;;;;;;6.08;100.00;101011.63;5054719;28;20516;-60
2023/12/09 00:45:37;;;;;;;32.42;9.35;;;;;;;6.07;100.00;101017.84;5055150;28;20021;-59
2023/12/09 00:48:02;;;;;;;33.50;9.07;;;;;;;6.07;100.00;101012.56;5055048;28;20041;-61
2023/12/09 00:50:28;;;;;;;32.58;8.85;;;;;;;6.06;100.00;101013.50;5052275;28;20096;-61
2023/12/09 00:52:53;;;;;;;23.63;8.07;;;;;;;6.05;100.00;101016.22;5054615;28;20420;-61
2023/12/09 00:55:18;;;;;;;26.02;8.07;;;;;;;6.03;100.00;101010.16;5054693;28;20059;-61
2023/12/09 00:57:43;;;;;;;30.50;9.32;;;;;;;5.99;100.00;101001.59;5051928;28;20032;-61
2023/12/09 01:00:09;;;;;;;27.65;9.07;;;;;;;5.98;100.00;100997.25;5052125;28;20435;-61
2023/12/09 01:02:35;;;;;;;31.45;10.25;;;;;;;5.96;100.00;101001.75;5052458;28;20033;-61
2023/12/09 01:05:00;;;;;;;33.45;9.93;;;;;;;5.93;100.00;101005.38;5053773;28;20037;-61
2023/12/09 01:07:25;;;;;;;29.25;9.07;;;;;;;5.90;100.00;101005.53;5050252;28;20070;-61
2023/12/09 01:09:50;;;;;;;32.20;9.40;;;;;;;5.87;100.00;101012.78;5054328;28;20044;-61
2023/12/09 01:12:16;;;;;;;36.17;9.70;;;;;;;5.84;100.00;101003.22;5053912;28;20120;-61
2023/12/09 01:14:41;;;;;;;31.77;9.73;;;;;;;5.83;100.00;101000.69;5053995;28;20029;-61
2023/12/09 01:17:06;;;;;;;37.08;10.27;;;;;;;5.80;100.00;100991.16;5052135;28;20025;-61
2023/12/09 01:19:32;;;;;;;34.17;9.98;;;;;;;5.77;100.00;100999.25;5053850;28;20029;-61
2023/12/09 01:21:57;;;;;;;28.88;9.90;;;;;;;5.76;100.00;100992.25;5051929;28;20397;-61
2023/12/09 01:24:23;;;;;;;26.85;8.85;;;;;;;5.74;100.00;100994.13;5051985;28;20025;-61
2023/12/09 01:26:48;;;;;;;29.02;9.95;;;;;;;5.73;100.00;100995.09;5053974;28;20021;-61
2023/12/09 01:29:13;;;;;;;39.95;10.10;;;;;;;5.68;100.00;100984.78;5053654;28;20393;-61
2023/12/09 01:31:39;;;;;;;29.15;10.27;;;;;;;5.68;100.00;100989.19;5052304;28;20021;-61
2023/12/09 01:34:04;;;;;;;29.75;10.23;;;;;;;5.66;100.00;100996.31;5053999;28;20040;-61
2023/12/09 01:36:29;;;;;;;32.88;10.98;;;;;;;5.67;100.00;100993.59;5054248;28;20043;-61
2023/12/09 01:38:54;;;;;;;40.75;10.73;;;;;;;5.65;100.00;100999.91;5053239;28;20087;-61
2023/12/09 01:41:20;;;;;;;32.05;11.15;;;;;;;5.66;100.00;100999.84;5053895;28;20039;-61
2023/12/09 01:43:48;;;;;;;31.95;9.90;;;;;;;5.63;100.00;100992.09;5053101;28;20028;-61
2023/12/09 01:46:16;;;;;;;33.75;10.00;;;;;;;5.61;100.00;100988.66;5053910;28;20473;-61
2023/12/09 01:48:41;;;;;;;33.65;10.85;;;;;;;5.61;100.00;100977.28;5053028;28;20494;-61
2023/12/09 01:51:07;;;;;;;37.10;11.75;;;;;;;5.60;100.00;100968.53;5053092;28;20067;-61
2023/12/09 01:53:35;;;;;;;28.33;10.73;;;;;;;5.57;100.00;100959.00;5053284;28;20132;-61
2023/12/09 01:56:03;;;;;;;34.35;11.02;;;;;;;5.56;100.00;100959.06;5053124;28;20017;-61
2023/12/09 01:58:29;;;;;;;39.85;10.40;;;;;;;5.55;100.00;100952.97;5052981;28;20470;-61
2023/12/09 02:00:55;;;;;;;31.65;11.27;;;;;;;5.58;100.00;100959.88;5053288;28;20029;-61
2023/12/09 02:03:20;;;;;;;45.20;12.25;;;;;;;5.57;100.00;100960.78;5053238;28;20032;-61
2023/12/09 02:05:46;;;;;;;32.80;10.55;;;;;;;5.55;100.00;100965.28;5053550;28;20091;-61
2023/12/09 02:08:11;;;;;;;41.25;10.85;;;;;;;5.55;100.00;100973.19;5052987;28;20608;-61
2023/12/09 02:10:37;;;;;;;34.00;10.45;;;;;;;5.52;100.00;100968.09;5052525;28;20113;-60
2023/12/09 02:13:23;;;;;;;35.40;10.45;;;;;;;5.54;100.00;100969.69;5053247;28;20382;-61
2023/12/09 02:16:03;;;;;;;40.28;10.77;;;;;;;5.53;100.00;100962.75;5051809;28;20028;-61
2023/12/09 02:18:30;;;;;;;35.70;10.63;;;;;;;5.48;100.00;100964.78;5053094;28;20041;-61
2023/12/09 02:20:55;;;;;;;38.83;11.20;;;;;;;5.48;100.00;100962.13;5053411;28;20325;-61
2023/12/09 02:23:20;;;;;;;34.45;10.48;;;;;;;5.47;100.00;100959.59;5052268;28;20056;-61
2023/12/09 02:25:50;;;;;;;31.73;10.88;;;;;;;5.44;100.00;100960.59;5052677;28;20036;-61
2023/12/09 02:28:26;;;;;;;38.05;10.70;;;;;;;5.43;100.00;100958.03;5052771;28;20040;-61
2023/12/09 02:31:15;;;;;;;30.25;10.10;;;;;;;5.43;100.00;100951.00;5049668;28;20031;-61
2023/12/09 02:33:43;;;;;;;42.13;10.50;;;;;;;5.40;100.00;100947.69;5051884;28;20527;-61
2023/12/09 02:36:10;;;;;;;37.70;10.23;;;;;;;5.38;100.00;100950.41;5049655;28;20355;-61
2023/12/09 02:38:40;;;;;;;33.58;10.43;;;;;;;5.36;100.00;100937.31;5051748;28;20013;-61
2023/12/09 02:41:08;;;;;;;34.00;10.10;;;;;;;5.35;100.00;100930.31;5053057;28;20489;-61
2023/12/09 02:43:34;;;;;;;32.67;10.17;;;;;;;5.34;100.00;100927.78;5051974;28;20040;-61
2023/12/09 02:45:59;;;;;;;39.72;10.90;;;;;;;5.33;100.00;100926.94;5052724;28;20029;-61
2023/12/09 02:48:24;;;;;;;29.02;10.40;;;;;;;5.33;100.00;100918.19;5050781;28;20159;-61
2023/12/09 02:50:50;;;;;;;35.17;10.25;;;;;;;5.30;100.00;100927.09;5051774;28;20024;-61
2023/12/09 02:53:15;;;;;;;35.95;9.88;;;;;;;5.29;100.00;100933.28;5051484;28;20398;-62
2023/12/09 02:55:41;;;;;;;31.13;9.55;;;;;;;5.27;100.00;100923.78;5051055;28;20055;-62
2023/12/09 02:58:06;;;;;;;28.73;10.00;;;;;;;5.25;100.00;100918.59;5052591;28;20016;-61
2023/12/09 03:00:31;;;;;;;28.88;9.98;;;;;;;5.24;100.00;100929.19;5052295;28;20033;-61
2023/12/09 03:02:57;;;;;;;33.42;10.75;;;;;;;5.26;100.00;100908.88;5052392;28;20024;-61
2023/12/09 03:05:22;;;;;;;36.80;9.90;;;;;;;5.24;100.00;100926.56;5052557;28;20517;-61
2023/12/09 03:07:47;;;;;;;34.90;10.70;;;;;;;5.23;100.00;100912.56;5051194;28;20112;-62
2023/12/09 03:10:12;;;;;;;37.38;10.05;;;;;;;5.22;100.00;100918.75;5052303;28;20028;-61
2023/12/09 03:12:38;;;;;;;30.77;9.73;;;;;;;5.19;100.00;100892.56;5052052;28;20374;-62
2023/12/09 03:15:05;;;;;;;31.40;10.40;;;;;;;5.19;100.00;100925.00;5052420;28;20040;-61
2023/12/09 03:17:32;;;;;;;37.30;9.50;;;;;;;5.19;100.00;100905.72;5049440;28;20043;-61
2023/12/09 03:19:58;;;;;;;32.20;9.07;;;;;;;5.16;100.00;100926.94;5052100;28;20032;-61
2023/12/09 03:22:23;;;;;;;31.73;9.77;;;;;;;5.14;100.00;100905.97;5050204;28;20044;-61
2023/12/09 03:24:48;;;;;;;33.05;9.77;;;;;;;5.13;100.00;100909.56;5051836;28;20025;-60
2023/12/09 03:27:13;;;;;;;30.45;8.52;;;;;;;5.16;100.00;100898.00;5049880;28;20055;-61
2023/12/09 03:29:40;;;;;;;34.35;9.18;;;;;;;5.15;100.00;100912.09;5051424;28;20021;-61
2023/12/09 03:32:05;;;;;;;28.50;9.20;;;;;;;5.13;100.00;100906.06;5051662;28;20424;-60
2023/12/09 03:34:30;;;;;;;28.35;8.38;;;;;;;5.13;100.00;100906.06;5052074;28;20025;-61
2023/12/09 03:36:56;;;;;;;38.17;9.23;;;;;;;5.14;100.00;100897.22;5051595;28;20071;-61
2023/12/09 03:39:21;;;;;;;33.35;8.75;;;;;;;5.13;100.00;100899.03;5051315;28;20453;-61
2023/12/09 03:41:46;;;;;;;35.90;9.93;;;;;;;5.14;100.00;100895.44;5051235;28;20025;-61
2023/12/09 03:44:12;;;;;;;39.47;9.05;;;;;;;5.15;100.00;100893.69;5051604;28;20497;-61
2023/12/09 03:46:37;;;;;;;34.92;9.20;;;;;;;5.15;100.00;100888.41;5051660;28;20048;-61
2023/12/09 03:49:02;;;;;;;28.88;8.70;;;;;;;5.14;100.00;100889.34;5051278;28;20074;-61
2023/12/09 03:51:27;;;;;;;32.10;7.57;;;;;;;5.14;100.00;100879.63;5051084;28;20025;-61
2023/12/09 03:53:54;;;;;;;36.17;9.25;;;;;;;5.13;100.00;100872.69;5051060;28;20107;-61
2023/12/09 03:56:21;;;;;;;30.95;8.15;;;;;;;5.15;100.00;100870.81;5051189;28;20040;-61
2023/12/09 03:58:47;;;;;;;35.17;8.40;;;;;;;5.14;100.00;100863.84;5051461;28;20025;-61
2023/12/09 04:01:12;;;;;;;26.20;7.20;;;;;;;5.13;100.00;100862.16;5048715;28;20035;-61
2023/12/09 04:03:37;;;;;;;29.00;7.45;;;;;;;5.13;100.00;100854.25;5050856;28;20025;-61
2023/12/09 04:06:05;;;;;;;34.17;8.20;;;;;;;5.14;100.00;100861.22;5050464;28;20099;-61
2023/12/09 04:08:30;;;;;;;29.90;7.72;;;;;;;5.16;100.00;100863.75;5050421;28;20027;-61
2023/12/09 04:10:56;;;;;;;29.88;7.53;;;;;;;5.17;100.00;100858.41;5051341;28;20103;-61
2023/12/09 04:13:21;;;;;;;35.05;8.13;;;;;;;5.24;100.00;100861.56;5050835;28;20032;-61
2023/12/09 04:15:47;;;;;;;30.40;7.68;;;;;;;5.26;100.00;100867.63;5050669;28;20029;-61
2023/12/09 04:18:12;;;;;;;28.48;7.97;;;;;;;5.28;100.00;100868.38;5051468;28;20059;-61
2023/12/09 04:20:37;;;;;;;30.95;6.90;;;;;;;5.30;100.00;100866.50;5050650;28;20028;-61
2023/12/09 04:23:04;;;;;;;31.00;7.28;;;;;;;5.29;100.00;100866.59;5051268;28;20037;-61
2023/12/09 04:25:30;;;;;;;31.40;7.22;;;;;;;5.29;100.00;100854.28;5050863;28;20025;-61
2023/12/09 04:27:55;;;;;;;18.40;6.57;;;;;;;5.30;100.00;100855.97;5047156;28;20480;-61
2023/12/09 04:30:23;;;;;;;23.70;6.45;;;;;;;5.31;100.00;100831.34;5050870;28;20036;-61
2023/12/09 04:32:49;;;;;;;27.55;7.13;;;;;;;5.33;100.00;100844.44;5050929;28;20112;-61
2023/12/09 04:35:14;;;;;;;25.85;6.90;;;;;;;5.32;100.00;100842.72;5049148;28;20115;-61
2023/12/09 04:37:40;;;;;;;25.23;6.80;;;;;;;5.34;100.00;100831.16;5050780;28;20476;-61
2023/12/09 04:40:09;;;;;;;26.27;6.97;;;;;;;5.36;100.00;100831.09;5050668;28;20025;-61
2023/12/09 04:42:35;;;;;;;31.10;6.68;;;;;;;5.36;100.00;100831.09;5050595;28;20021;-61
2023/12/09 04:45:00;;;;;;;31.92;7.43;;;;;;;5.42;100.00;100832.53;5050798;28;20025;-61
2023/12/09 04:47:25;;;;;;;26.48;6.07;;;;;;;5.43;100.00;100836.84;5052090;28;20398;-61
2023/12/09 04:49:50;;;;;;;24.20;6.53;;;;;;;5.41;100.00;100823.78;5050506;28;20070;-61
2023/12/09 04:52:16;;;;;;;19.67;6.07;;;;;;;5.44;100.00;100817.50;5049532;28;20017;-61
2023/12/09 04:54:41;;;;;;;23.10;6.13;;;;;;;5.45;100.00;100821.84;5050322;28;20021;-61
2023/12/09 04:57:06;;;;;;;25.40;6.03;;;;;;;5.46;100.00;100813.00;5050977;28;20033;-61
2023/12/09 04:59:31;;;;;;;27.30;6.15;;;;;;;5.46;100.00;100818.25;5051186;28;20479;-61
2023/12/09 05:01:57;;;;;;;23.23;5.85;;;;;;;5.47;100.00;100817.34;5047998;28;20116;-61
2023/12/09 05:04:22;;;;;;;25.95;5.72;;;;;;;5.47;100.00;100802.38;5049851;28;20028;-61
2023/12/09 05:06:47;;;;;;;27.88;6.35;;;;;;;5.50;100.00;100811.91;5049752;28;20104;-61
2023/12/09 05:09:13;;;;;;;29.38;6.25;;;;;;;5.50;100.00;100802.19;5050256;28;20488;-61
2023/12/09 05:11:39;;;;;;;22.75;6.10;;;;;;;5.51;100.00;100798.66;5050477;28;20025;-61
2023/12/09 05:14:04;;;;;;;22.95;6.32;;;;;;;5.53;100.00;100807.31;5048761;28;20049;-61
2023/12/09 05:16:30;;;;;;;21.85;6.10;;;;;;;5.53;100.00;100804.66;5052902;28;20036;-61
2023/12/09 05:18:55;;;;;;;29.40;6.13;;;;;;;5.56;100.00;100811.53;5054036;28;20025;-61
2023/12/09 05:21:20;;;;;;;23.88;6.03;;;;;;;5.54;100.00;100808.13;5054788;28;20035;-61
2023/12/09 05:23:46;;;;;;;28.58;6.13;;;;;;;5.54;100.00;100805.50;5052926;28;20075;-61
2023/12/09 05:26:31;;;;;;;25.13;6.38;;;;;;;5.60;100.00;100802.53;5053795;28;20104;-61
2023/12/09 05:28:57;;;;;;;21.05;5.47;;;;;;;5.53;100.00;100802.03;5052617;28;20047;-61
2023/12/09 05:31:23;;;;;;;23.70;6.22;;;;;;;5.53;100.00;100794.13;5053588;28;20036;-61
2023/12/09 05:33:48;;;;;;;23.48;5.82;;;;;;;5.53;100.00;100790.66;5052909;28;20016;-61
2023/12/09 05:36:14;;;;;;;27.85;5.72;;;;;;;5.52;100.00;100796.84;5054385;28;20592;-61
2023/12/09 05:38:43;;;;;;;20.15;5.45;;;;;;;5.52;100.00;100791.59;5052563;28;20021;-61
2023/12/09 05:41:09;;;;;;;22.95;5.57;;;;;;;5.53;100.00;100796.75;5056001;28;20033;-61
2023/12/09 05:43:36;;;;;;;23.25;5.93;;;;;;;5.50;100.00;100781.13;5054098;28;20029;-60
2023/12/09 05:46:01;;;;;;;29.15;6.03;;;;;;;5.50;100.00;100789.03;5054029;28;20100;-61
2023/12/09 05:48:27;;;;;;;26.75;5.80;;;;;;;5.51;100.00;100787.22;5053951;28;20152;-61
2023/12/09 05:50:52;;;;;;;23.77;5.35;;;;;;;5.53;100.00;100773.06;5052625;28;20033;-61
2023/12/09 05:53:17;;;;;;;24.85;5.40;;;;;;;5.54;100.00;100766.84;5053618;28;20090;-61
2023/12/09 05:55:42;;;;;;;21.55;5.75;;;;;;;5.56;100.00;100770.25;5053510;28;20025;-61
2023/12/09 05:58:08;;;;;;;27.80;6.30;;;;;;;5.54;100.00;100772.09;5052854;28;20029;-61
2023/12/09 06:00:33;;;;;;;19.13;4.75;;;;;;;5.55;100.00;100771.16;5053436;28;20086;-61
2023/12/09 06:02:58;;;;;;;19.33;5.40;;;;;;;5.55;100.00;100778.25;5053449;28;20115;-61
2023/12/09 06:05:24;;;;;;;24.92;5.15;;;;;;;5.56;100.00;100770.25;5053568;28;20025;-61
2023/12/09 06:07:49;;;;;;;21.98;5.18;;;;;;;5.58;100.00;100775.44;5052813;28;20474;-61
2023/12/09 06:10:15;;;;;;;21.13;5.30;;;;;;;5.57;100.00;100769.28;5053442;28;20122;-61
2023/12/09 06:12:40;;;;;;;21.25;5.18;;;;;;;5.58;100.00;100767.53;5052677;28;20117;-61
2023/12/09 06:15:06;;;;;;;21.38;5.45;;;;;;;5.58;100.00;100759.63;5054050;28;20056;-61
2023/12/09 06:17:32;;;;;;;20.42;5.63;;;;;;;5.58;100.00;100754.34;5052079;28;20021;-61
2023/12/09 06:19:58;;;;;;;20.88;5.40;;;;;;;5.55;100.00;100736.94;5053499;28;20021;-60
2023/12/09 06:22:23;;;;;;;22.95;5.15;;;;;;;5.55;100.00;100734.28;5050592;28;20021;-61
2023/12/09 06:24:48;;;;;;;21.17;5.32;;;;;;;5.55;100.00;100738.72;5049930;28;20382;-61
2023/12/09 06:27:13;;;;;;;19.63;5.20;;;;;;;5.53;100.00;100741.44;5050594;28;20059;-61
2023/12/09 06:29:39;;;;;;;20.63;5.30;;;;;;;5.49;100.00;100739.91;5052943;28;20029;-61
2023/12/09 06:32:05;;;;;;;21.92;5.43;;;;;;;5.46;100.00;100736.59;5052272;28;20071;-61
2023/12/09 06:34:30;;;;;;;17.98;4.85;;;;;;;5.45;100.00;100721.75;5048888;28;20029;-61
2023/12/09 06:36:55;;;;;;;21.05;4.85;;;;;;;5.46;100.00;100721.66;5048488;28;20056;-61
2023/12/09 06:39:21;;;;;;;18.17;5.20;;;;;;;5.43;100.00;100716.56;5052026;28;20040;-61
2023/12/09 06:41:47;;;;;;;20.73;5.10;;;;;;;5.42;100.00;100712.22;5050876;28;20026;-61
2023/12/09 06:44:12;;;;;;;21.95;5.18;;;;;;;5.42;100.00;100714.03;5053246;28;20108;-61
2023/12/09 06:46:38;;;;;;;17.08;5.22;;;;;;;5.41;100.00;100699.97;5051893;28;20470;-61
2023/12/09 06:49:03;;;;;;;20.25;5.13;;;;;;;5.39;100.00;100701.84;5052582;28;20045;-61
2023/12/09 06:51:29;;;;;;;22.20;5.13;;;;;;;5.36;100.00;100687.09;5051907;28;20052;-61
2023/12/09 06:53:55;;;;;;;23.52;5.47;;;;;;;5.39;100.00;100675.53;5052958;28;20374;-61
2023/12/09 06:56:21;;;;;;;23.23;5.45;;;;;;;5.37;100.00;100672.13;5052135;28;20086;-61
2023/12/09 06:58:46;;;;;;;20.20;4.72;;;;;;;5.36;100.00;100662.53;5052807;28;20029;-61
2023/12/09 07:01:22;;;;;;;17.42;4.50;;;;;;;5.37;100.00;100645.78;5051867;28;20025;-61
2023/12/09 07:03:48;;;;;;;25.55;5.43;;;;;;;5.35;100.00;100639.78;5048958;28;20056;-61
2023/12/09 07:06:20;;;;;;;19.95;5.80;;;;;;;5.36;100.00;100644.09;5046197;28;20025;-61
2023/12/09 07:08:45;;;;;;;19.20;4.95;;;;;;;5.36;100.00;100630.91;5048872;28;20065;-61
2023/12/09 07:11:11;;;;;;;19.27;5.07;;;;;;;5.35;100.00;100626.59;5049509;28;20053;-61
2023/12/09 07:13:36;;;;;;;22.95;4.63;;;;;;;5.32;100.00;100611.81;5049007;28;20120;-61
2023/12/09 07:16:03;;;;;;;22.98;5.25;;;;;;;5.37;100.00;100615.03;5046159;28;20039;-61
2023/12/09 07:18:28;;;;;;;15.77;4.78;;;;;;;5.37;100.00;100593.97;5050931;28;20553;-61
2023/12/09 07:20:54;;;;;;;18.83;5.30;;;;;;;5.41;100.00;100599.88;5045469;28;20116;-61
2023/12/09 07:23:19;;;;;;;20.85;5.30;;;;;;;5.38;100.00;100600.94;5048137;28;20056;-61
2023/12/09 07:25:44;;;;;;;18.45;4.75;;;;;;;5.40;100.00;100600.84;5046673;28;20083;-61
2023/12/09 07:28:10;;;;;;;17.13;4.22;;;;;;;5.41;100.00;100606.94;5048108;28;20045;-61
2023/12/09 07:30:35;;;;;;;18.35;4.50;;;;;;;5.42;100.00;100620.03;5045036;28;20437;-62
2023/12/09 07:33:00;;;;;;;21.27;5.07;;;;;;;5.43;100.00;100615.59;5049557;28;20029;-61
2023/12/09 07:35:26;;;;;;;15.00;4.80;;;;;;;5.40;100.00;100600.84;5047619;28;20140;-61
2023/12/09 07:37:51;;;;;;;22.42;5.05;;;;;;;5.41;100.00;100593.78;5047314;28;20033;-61
2023/12/09 07:40:16;;;;;;;17.45;5.07;;;;;;;5.41;100.00;100577.97;5042107;28;20028;-61
2023/12/09 07:42:41;;;;;;;22.75;5.30;;;;;;;5.38;100.00;100579.88;5045430;28;20252;-61
2023/12/09 07:45:08;;;;;;;25.20;5.47;;;;;;;5.38;100.00;100571.13;5047793;28;20025;-61
2023/12/09 07:47:33;;;;;;;21.42;4.78;;;;;;;5.40;100.00;100590.31;5048386;28;20486;-62
2023/12/09 07:49:58;;;;;;;22.20;4.72;;;;;;;5.37;100.00;100590.50;5046582;28;20084;-61
2023/12/09 07:52:24;;;;;;;18.17;4.70;;;;;;;5.37;100.00;100583.44;5048341;28;20032;-61
2023/12/09 07:54:49;;;;;;;15.32;4.82;;;;;;;5.39;100.00;100580.69;5046038;28;20072;-61
2023/12/09 07:57:14;;;;;;;25.05;5.45;;;;;;;5.40;100.00;100571.88;5042840;28;20159;-61
2023/12/09 07:59:40;;;;;;;13.68;4.50;;;;;;;5.38;100.00;100571.97;5050911;28;20040;-62
2023/12/09 08:02:05;;;;;;;22.23;4.95;;;;;;;5.40;100.00;100560.50;5047689;28;20021;-62
2023/12/09 08:04:30;;;;;;;19.38;4.78;;;;;;;5.40;100.00;100545.53;5049265;28;20090;-60
2023/12/09 08:06:55;;;;;;;19.88;4.57;;;;;;;5.43;100.00;100547.13;5047640;28;20025;-61
2023/12/09 08:09:21;;;;;;;21.20;4.90;;;;;;;5.47;100.00;100540.75;5049948;28;20065;-61
2023/12/09 08:11:46;;;;;;;27.35;5.00;;;;;;;5.48;100.00;100537.16;5046034;28;20064;-60
2023/12/09 08:14:12;;;;;;;22.50;4.88;;;;;;;5.50;100.00;100543.22;5047151;28;20037;-60
2023/12/09 08:16:37;;;;;;;23.42;5.15;;;;;;;5.52;100.00;100550.06;5049197;28;20025;-61
2023/12/09 08:19:02;;;;;;;19.50;5.10;;;;;;;5.55;100.00;100547.25;5048934;28;20029;-62
2023/12/09 08:21:28;;;;;;;26.20;4.32;;;;;;;5.60;100.00;100538.22;5044645;28;20021;-61
2023/12/09 08:23:54;;;;;;;17.70;4.70;;;;;;;5.64;100.00;100543.19;5046135;28;20033;-61
2023/12/09 08:26:20;;;;;;;17.95;5.25;;;;;;;5.67;100.00;100535.09;5048516;28;20033;-61
2023/12/09 08:28:45;;;;;;;17.45;5.22;;;;;;;5.69;100.00;100540.28;5045838;28;20021;-61
2023/12/09 08:31:11;;;;;;;24.25;5.00;;;;;;;5.69;100.00;100542.91;5047631;28;20485;-61
2023/12/09 08:33:36;;;;;;;19.08;4.75;;;;;;;5.71;100.00;100531.38;5047060;28;20406;-61
2023/12/09 08:36:01;;;;;;;15.43;4.20;;;;;;;5.74;100.00;100531.19;5045311;28;20107;-62
2023/12/09 08:38:27;;;;;;;19.15;4.25;;;;;;;5.77;100.00;100535.41;5044609;28;20036;-61
2023/12/09 08:40:53;;;;;;;14.90;4.20;;;;;;;5.79;100.00;100532.66;5048047;28;20040;-61
2023/12/09 08:43:19;;;;;;;25.08;4.45;;;;;;;5.82;100.00;100527.22;5047997;28;20029;-61
2023/12/09 08:45:44;;;;;;;18.45;4.45;;;;;;;5.83;100.00;100520.97;5048720;28;20394;-61
2023/12/09 08:48:09;;;;;;;19.98;4.47;;;;;;;5.84;100.00;100515.63;5046107;28;20072;-62
2023/12/09 08:50:34;;;;;;;14.18;4.10;;;;;;;5.88;100.00;100516.31;5047480;28;20024;-61
2023/12/09 08:53:02;;;;;;;14.15;3.92;;;;;;;5.90;100.00;100517.88;5049488;28;20029;-62
2023/12/09 08:55:27;;;;;;;13.70;3.85;;;;;;;5.92;100.00;100505.44;5055204;28;20025;-61
2023/12/09 08:57:52;;;;;;;12.02;3.83;;;;;;;5.96;100.00;100507.91;5043217;28;20029;-61
2023/12/09 09:00:20;;;;;;;18.73;4.20;;;;;;;5.97;100.00;100502.56;5050686;28;20028;-61
2023/12/09 09:02:45;;;;;;;15.23;4.15;;;;;;;6.00;100.00;100499.72;5045661;28;20025;-61
2023/12/09 09:05:11;;;;;;;14.68;4.00;;;;;;;6.02;100.00;100495.22;5050629;28;20519;-61
2023/12/09 09:07:40;;;;;;;12.90;3.67;;;;;;;6.03;100.00;100489.00;5046468;28;20021;-61
2023/12/09 09:10:06;;;;;;;17.33;3.88;;;;;;;6.06;100.00;100480.03;5044385;28;20477;-61
2023/12/09 09:12:32;;;;;;;18.23;3.97;;;;;;;6.07;100.00;100473.81;5047303;28;20040;-61
2023/12/09 09:14:57;;;;;;;14.02;3.90;;;;;;;6.09;100.00;100458.75;5048060;28;20386;-61
2023/12/09 09:17:23;;;;;;;18.23;4.20;;;;;;;6.12;100.00;100450.66;5048917;28;20025;-61
2023/12/09 09:19:48;;;;;;;16.65;3.58;;;;;;;6.14;100.00;100440.84;5049609;28;20534;-61
2023/12/09 09:22:13;;;;;;;14.10;3.72;;;;;;;6.19;100.00;100425.56;5053124;28;20099;-61
2023/12/09 09:24:38;;;;;;;13.20;3.50;;;;;;;6.25;100.00;100413.78;5054231;28;20027;-61
2023/12/09 09:27:04;;;;;;;13.45;3.38;;;;;;;6.26;100.00;100399.63;5057055;28;20032;-61
2023/12/09 09:29:29;;;;;;;13.77;3.67;;;;;;;6.28;100.00;100397.78;5051639;28;20117;-61
2023/12/09 09:31:54;;;;;;;19.80;4.25;;;;;;;6.28;100.00;100385.41;5052883;28;20385;-60
2023/12/09 09:34:20;;;;;;;13.75;3.38;;;;;;;6.32;100.00;100393.97;5053769;28;20124;-61
2023/12/09 09:36:45;;;;;;;16.58;3.22;;;;;;;6.33;100.00;100402.72;5053879;28;20466;-61
2023/12/09 09:39:12;;;;;;;14.45;3.47;;;;;;;6.34;100.00;100397.34;5050192;28;20021;-61
2023/12/09 09:41:54;;;;;;;14.90;3.22;;;;;;;6.38;100.00;100404.13;5049981;28;20029;-60
2023/12/09 09:44:22;;;;;;;11.20;2.97;;;;;;;6.38;100.00;100396.22;5052508;28;20048;-61
2023/12/09 09:46:49;;;;;;;10.85;3.40;;;;;;;6.42;100.00;100395.03;5051334;28;20021;-61
2023/12/09 09:49:18;;;;;;;16.90;3.72;;;;;;;6.45;100.00;100389.56;5053235;28;20032;-61
2023/12/09 09:51:44;;;;;;;;;;;;;;;6.50;100.00;100381.34;5052816;28;20037;-60
2023/12/09 09:54:27;;;;;;;12.73;3.08;;;;;;;6.52;100.00;100360.16;5052838;28;20010;-61
2023/12/09 09:56:53;;;;;;;12.43;3.08;;;;;;;6.52;100.00;100357.50;5050580;28;20026;-61
2023/12/09 09:59:19;;;;;;;10.18;2.88;;;;;;;6.55;100.00;100358.13;5052342;28;20390;-61
2023/12/09 10:01:44;;;;;;;12.40;3.17;;;;;;;6.59;100.00;100353.50;5051297;28;20040;-61
2023/12/09 10:04:11;;;;;;;13.65;3.03;;;;;;;6.61;100.00;100351.59;5049931;28;20032;-60
2023/12/09 10:06:36;;;;;;;14.45;3.47;;;;;;;6.65;100.00;100337.25;5051518;28;20033;-61
2023/12/09 10:09:02;;;;;;;12.48;3.72;;;;;;;6.65;100.00;100329.34;5045313;28;20108;-61
2023/12/09 10:11:27;;;;;;;14.23;3.40;;;;;;;6.65;100.00;100316.97;5042639;28;20478;-61
2023/12/09 10:13:53;;;;;;;18.00;3.25;;;;;;;6.67;100.00;100298.41;5049590;28;20028;-61
2023/12/09 10:16:18;;;;;;;9.10;2.90;;;;;;;6.68;100.00;100300.09;5051352;28;20042;-59
2023/12/09 10:18:46;;;;;;;14.80;3.70;;;;;;;6.69;100.00;100288.56;5050449;28;20021;-61
2023/12/09 10:21:11;;;;;;;15.57;3.25;;;;;;;6.71;100.00;100281.41;5053123;28;20036;-61
2023/12/09 10:23:37;;;;;;;10.52;3.40;;;;;;;6.72;100.00;100269.91;5050876;28;20431;-61
2023/12/09 10:26:02;;;;;;;14.82;3.55;;;;;;;6.74;100.00;100264.50;5050845;28;20439;-61
2023/12/09 10:28:29;;;;;;;13.30;3.35;;;;;;;6.75;100.00;100247.75;5050996;28;20406;-61
2023/12/09 10:30:55;;;;;;;13.00;3.20;;;;;;;6.75;100.00;100247.75;5051278;28;20071;-60
2023/12/09 10:33:21;;;;;;;16.05;3.30;;;;;;;6.77;100.00;100230.81;5048810;28;20060;-61
2023/12/09 10:35:46;;;;;;;9.18;2.85;;;;;;;6.79;100.00;100217.53;5051521;28;20021;-61
2023/12/09 10:38:15;;;;;;;12.18;3.00;;;;;;;6.79;100.00;100223.63;5049613;28;20538;-61
2023/12/09 10:40:40;;;;;;;12.02;3.83;;;;;;;6.80;100.00;100225.34;5050616;28;20033;-61
2023/12/09 10:43:05;;;;;;;12.55;3.70;;;;;;;6.84;100.00;100221.53;5049602;28;20028;-61
2023/12/09 10:45:31;;;;;;;10.88;3.55;;;;;;;6.84;100.00;100205.72;5048832;28;20020;-61
2023/12/09 10:47:57;;;;;;;10.35;3.13;;;;;;;6.87;100.00;100186.16;5049912;28;20489;-61
2023/12/09 10:50:23;;;;;;;10.75;3.13;;;;;;;6.90;100.00;100172.72;5050050;28;20378;-61
2023/12/09 10:52:48;;;;;;;12.05;3.03;;;;;;;6.91;100.00;100158.59;5050512;28;20021;-61
2023/12/09 10:55:14;;;;;;;12.18;3.10;;;;;;;6.92;100.00;100144.41;5050711;28;20037;-61
2023/12/09 10:57:40;;;;;;;8.50;2.95;;;;;;;6.93;100.00;100139.97;5049720;28;20028;-61
2023/12/09 11:00:10;;;;;;;12.98;2.72;;;;;;;6.93;100.00;100129.41;5051028;28;20445;-60
2023/12/09 11:02:39;;;;;;;11.48;3.22;;;;;;;6.95;100.00;100119.59;5051693;28;20039;-61
2023/12/09 11:05:09;;;;;;;10.63;2.70;;;;;;;6.94;100.00;100123.19;5054408;28;20373;-60
2023/12/09 11:07:36;;;;;;;9.13;3.15;;;;;;;6.97;100.00;100117.69;5045284;28;20028;-60
2023/12/09 11:10:03;;;;;;;9.77;2.63;;;;;;;6.98;100.00;100111.47;5045317;28;20596;-60
2023/12/09 11:12:30;;;;;;;11.15;2.55;;;;;;;7.02;100.00;100079.41;5046948;28;20032;-60